createdAt,value
2022-11-30T00:00:37.702Z,51.17
2022-11-30T00:03:06.133Z,59.83
2022-11-30T00:05:33.540Z,67.13
2022-11-30T00:08:01.938Z,60.67
2022-11-30T00:10:29.405Z,56.47
2022-11-30T00:12:56.939Z,53.87
2022-11-30T00:15:25.517Z,46.17
2022-11-30T00:17:56.252Z,42.17
2022-11-30T00:20:24.535Z,41.63
2022-11-30T00:22:53.773Z,57.13
2022-11-30T00:25:21.300Z,49.80
2022-11-30T00:27:49.591Z,72.17
2022-11-30T00:30:17.165Z,77.03
2022-11-30T00:32:44.670Z,68.50
2022-11-30T00:35:12.209Z,44.57
2022-11-30T00:37:39.769Z,45.23
2022-11-30T00:40:07.335Z,33.97
2022-11-30T00:42:34.851Z,31.90
2022-11-30T00:45:02.432Z,26.13
2022-11-30T00:47:29.968Z,36.70
2022-11-30T00:49:57.492Z,38.20
2022-11-30T00:52:25.855Z,35.17
2022-11-30T00:54:53.379Z,34.43
2022-11-30T00:57:20.935Z,22.40
2022-11-30T00:59:48.500Z,25.83
2022-11-30T01:02:16.056Z,15.23
2022-11-30T01:04:43.656Z,29.27
2022-11-30T01:07:11.121Z,20.27
2022-11-30T01:09:39.404Z,34.27
2022-11-30T01:12:07.699Z,32.00
2022-11-30T01:14:35.290Z,38.07
2022-11-30T01:17:02.843Z,21.00
2022-11-30T01:19:30.356Z,38.67
2022-11-30T01:21:57.925Z,26.73
2022-11-30T01:24:25.450Z,31.90
2022-11-30T01:26:52.974Z,36.33
2022-11-30T01:29:20.558Z,24.90
2022-11-30T01:31:48.179Z,36.90
2022-11-30T01:34:16.451Z,31.27
2022-11-30T01:36:44.031Z,21.73
2022-11-30T01:39:11.554Z,41.43
2022-11-30T01:41:39.857Z,48.10
2022-11-30T01:44:07.432Z,29.77
2022-11-30T01:46:35.037Z,52.93
2022-11-30T01:49:11.413Z,36.95
2022-11-30T01:51:46.714Z,44.37
2022-11-30T01:54:14.257Z,53.30
2022-11-30T01:56:41.765Z,78.40
2022-11-30T01:59:10.677Z,70.13
2022-11-30T02:01:38.234Z,55.03
2022-11-30T02:04:09.392Z,73.20
2022-11-30T02:06:36.965Z,58.47
2022-11-30T02:09:04.508Z,47.33
2022-11-30T02:11:32.034Z,57.17
2022-11-30T02:14:02.167Z,29.15
2022-11-30T02:16:47.870Z,47.53
2022-11-30T02:19:21.253Z,48.13
2022-11-30T02:21:57.648Z,34.17
2022-11-30T02:24:31.842Z,23.90
2022-11-30T02:27:02.022Z,19.70
2022-11-30T02:29:29.557Z,29.50
2022-11-30T02:32:09.059Z,18.20
2022-11-30T02:34:36.599Z,22.13
2022-11-30T02:37:04.124Z,27.30
2022-11-30T02:39:31.836Z,21.13
2022-11-30T02:41:59.361Z,30.97
2022-11-30T02:44:26.889Z,15.37
2022-11-30T02:46:57.964Z,19.57
2022-11-30T02:49:31.929Z,21.20
2022-11-30T02:51:59.485Z,62.27
2022-11-30T02:54:27.069Z,19.73
2022-11-30T02:56:54.594Z,11.57
2022-11-30T02:59:22.119Z,17.80
2022-11-30T03:01:50.492Z,15.37
2022-11-30T03:04:17.985Z,14.90
2022-11-30T03:06:45.509Z,15.60
2022-11-30T03:09:13.845Z,15.13
2022-11-30T03:11:41.367Z,12.57
2022-11-30T03:14:08.893Z,13.50
2022-11-30T03:16:36.505Z,13.87
2022-11-30T03:19:04.030Z,13.60
2022-11-30T03:21:32.324Z,10.90
2022-11-30T03:23:59.888Z,19.97
2022-11-30T03:26:27.413Z,14.00
2022-11-30T03:28:55.705Z,11.70
2022-11-30T03:31:24.086Z,10.47
2022-11-30T03:33:51.572Z,11.27
2022-11-30T03:36:19.106Z,10.33
2022-11-30T03:38:46.682Z,8.23
2022-11-30T03:41:14.217Z,8.87
2022-11-30T03:43:42.510Z,11.17
2022-11-30T03:46:10.204Z,10.47
2022-11-30T03:48:37.706Z,11.80
2022-11-30T03:51:06.020Z,13.00
2022-11-30T03:53:33.573Z,13.10
2022-11-30T03:56:01.113Z,14.07
2022-11-30T03:58:29.400Z,13.97
2022-11-30T04:01:00.065Z,13.37
2022-11-30T04:03:27.582Z,15.70
2022-11-30T04:05:55.106Z,13.73
2022-11-30T04:08:22.681Z,10.97
2022-11-30T04:10:53.990Z,10.97
2022-11-30T04:13:21.534Z,11.73
2022-11-30T04:15:49.148Z,9.70
2022-11-30T04:18:16.611Z,11.90
2022-11-30T04:20:44.903Z,9.97
2022-11-30T04:23:12.468Z,10.17
2022-11-30T04:25:39.994Z,11.67
2022-11-30T04:28:08.295Z,11.33
2022-11-30T04:30:35.867Z,13.60
2022-11-30T04:33:03.395Z,13.30
2022-11-30T04:35:31.687Z,11.57
2022-11-30T04:38:00.581Z,17.27
2022-11-30T04:40:28.105Z,12.43
2022-11-30T04:42:55.640Z,13.70
2022-11-30T04:45:23.215Z,12.83
2022-11-30T04:47:50.748Z,12.87
2022-11-30T04:50:18.284Z,14.70
2022-11-30T04:52:46.154Z,15.47
2022-11-30T04:55:13.687Z,13.80
2022-11-30T04:57:41.991Z,14.43
2022-11-30T05:00:09.791Z,14.20
2022-11-30T05:02:37.316Z,14.10
2022-11-30T05:05:04.840Z,13.90
2022-11-30T05:07:33.578Z,15.67
2022-11-30T05:10:01.071Z,16.57
2022-11-30T05:12:28.598Z,18.27
2022-11-30T05:14:56.437Z,13.80
2022-11-30T05:17:23.961Z,15.50
2022-11-30T05:19:52.275Z,14.70
2022-11-30T05:22:19.848Z,16.57
2022-11-30T05:24:47.646Z,17.07
2022-11-30T05:27:20.902Z,14.50
2022-11-30T05:29:42.983Z,18.47
2022-11-30T05:32:11.286Z,17.27
2022-11-30T05:34:50.187Z,15.70
2022-11-30T05:37:07.154Z,16.37
2022-11-30T05:39:34.688Z,14.87
2022-11-30T05:42:02.214Z,16.93
2022-11-30T05:44:30.586Z,19.77
2022-11-30T05:46:58.164Z,15.07
2022-11-30T05:49:25.664Z,17.07
2022-11-30T05:51:53.220Z,19.03
2022-11-30T05:54:20.744Z,13.83
2022-11-30T05:56:53.107Z,16.70
2022-11-30T05:59:16.605Z,16.07
2022-11-30T06:01:44.244Z,14.77
2022-11-30T06:04:12.419Z,17.97
2022-11-30T06:06:40.051Z,15.30
2022-11-30T06:09:07.591Z,16.57
2022-11-30T06:11:35.110Z,17.83
2022-11-30T06:14:02.684Z,17.77
2022-11-30T06:16:30.262Z,20.17
2022-11-30T06:18:57.755Z,17.40
2022-11-30T06:21:26.157Z,21.37
2022-11-30T06:23:53.697Z,17.50
2022-11-30T06:26:21.993Z,19.03
2022-11-30T06:28:49.558Z,19.10
2022-11-30T06:31:17.127Z,23.17
2022-11-30T06:33:45.386Z,20.43
2022-11-30T06:36:13.265Z,19.10
2022-11-30T06:38:40.789Z,23.57
2022-11-30T06:41:09.129Z,23.73
2022-11-30T06:43:36.666Z,17.13
2022-11-30T06:46:04.275Z,20.40
2022-11-30T06:48:31.725Z,21.37
2022-11-30T06:50:59.312Z,20.87
2022-11-30T06:53:27.596Z,21.50
2022-11-30T06:55:55.128Z,21.00
2022-11-30T06:58:23.461Z,22.33
2022-11-30T07:00:51.015Z,20.90
2022-11-30T07:03:18.529Z,22.03
2022-11-30T07:05:47.453Z,19.90
2022-11-30T07:08:14.981Z,18.23
2022-11-30T07:10:45.441Z,17.80
2022-11-30T07:13:15.541Z,23.30
2022-11-30T07:15:43.085Z,19.80
2022-11-30T07:18:11.385Z,21.87
2022-11-30T07:20:38.966Z,21.70
2022-11-30T07:23:24.546Z,20.03
2022-11-30T07:26:07.145Z,22.70
2022-11-30T07:28:34.681Z,22.67
2022-11-30T07:31:02.981Z,22.50
2022-11-30T07:33:30.557Z,24.50
2022-11-30T07:35:58.100Z,21.77
2022-11-30T07:38:25.626Z,15.80
2022-11-30T07:40:53.968Z,22.37
2022-11-30T07:43:21.533Z,21.83
2022-11-30T07:45:51.770Z,26.48
2022-11-30T07:48:19.349Z,25.67
2022-11-30T07:50:50.182Z,21.03
2022-11-30T07:53:18.495Z,20.53
2022-11-30T07:55:46.049Z,20.57
2022-11-30T07:58:17.339Z,20.13
2022-11-30T08:00:41.914Z,23.53
2022-11-30T08:03:09.441Z,25.08
2022-11-30T08:05:36.966Z,22.23
2022-11-30T08:08:05.261Z,21.37
2022-11-30T08:10:32.832Z,21.03
2022-11-30T08:13:00.374Z,23.83
2022-11-30T08:15:32.564Z,25.10
2022-11-30T08:17:56.236Z,24.57
2022-11-30T08:20:23.816Z,24.37
2022-11-30T08:22:52.053Z,21.93
2022-11-30T08:25:19.668Z,23.43
2022-11-30T08:27:47.191Z,23.80
2022-11-30T08:30:14.716Z,27.77
2022-11-30T08:32:43.048Z,23.13
2022-11-30T08:35:10.573Z,22.20
2022-11-30T08:37:38.102Z,20.97
2022-11-30T08:40:06.548Z,24.90
2022-11-30T08:42:34.083Z,21.63
2022-11-30T08:45:01.959Z,26.00
2022-11-30T08:47:29.989Z,23.37
2022-11-30T08:49:57.468Z,25.80
2022-11-30T08:52:25.000Z,25.57
2022-11-30T08:54:53.450Z,26.03
2022-11-30T08:57:20.878Z,20.90
2022-11-30T08:59:48.460Z,26.65
2022-11-30T09:02:19.200Z,24.70
2022-11-30T09:04:47.024Z,22.87
2022-11-30T09:07:14.549Z,22.37
2022-11-30T09:09:42.931Z,22.37
2022-11-30T09:12:11.234Z,26.90
2022-11-30T09:14:38.906Z,26.70
2022-11-30T09:17:06.480Z,23.57
2022-11-30T09:19:34.048Z,20.97
2022-11-30T09:22:01.580Z,23.13
2022-11-30T09:24:29.753Z,26.97
2022-11-30T09:26:57.282Z,25.17
2022-11-30T09:29:25.573Z,23.07
2022-11-30T09:31:53.147Z,30.60
2022-11-30T09:34:20.671Z,29.80
2022-11-30T09:36:48.965Z,31.83
2022-11-30T09:39:16.557Z,34.57
2022-11-30T09:41:50.240Z,29.80
2022-11-30T09:44:30.385Z,27.53
2022-11-30T09:47:00.608Z,33.22
2022-11-30T09:49:28.132Z,28.97
2022-11-30T09:51:55.709Z,28.10
2022-11-30T09:54:23.232Z,28.90
2022-11-30T09:56:50.768Z,25.07
2022-11-30T09:59:21.876Z,31.45
2022-11-30T10:01:56.378Z,26.77
2022-11-30T10:04:29.509Z,31.40
2022-11-30T10:07:17.849Z,28.07
2022-11-30T10:12:36.864Z,31.67
2022-11-30T10:15:07.116Z,35.03
2022-11-30T10:17:46.446Z,23.47
2022-11-30T10:20:25.747Z,22.43
2022-11-30T10:23:15.223Z,19.37
2022-11-30T10:26:06.905Z,23.93
2022-11-30T10:28:52.517Z,21.00
2022-11-30T10:31:26.000Z,19.63
2022-11-30T10:33:53.447Z,24.70
2022-11-30T10:36:38.999Z,17.63
2022-11-30T10:39:09.615Z,20.47
2022-11-30T10:41:36.826Z,21.43
2022-11-30T10:44:19.740Z,18.67
2022-11-30T10:46:47.297Z,16.43
2022-11-30T10:49:18.346Z,18.80
2022-11-30T10:51:45.929Z,18.53
2022-11-30T10:54:19.215Z,18.73
2022-11-30T10:56:46.738Z,20.40
2022-11-30T10:59:18.113Z,17.17
2022-11-30T11:01:45.715Z,17.60
2022-11-30T11:04:13.253Z,17.77
2022-11-30T11:06:51.027Z,17.80
2022-11-30T11:09:27.736Z,19.53
2022-11-30T11:11:55.314Z,17.93
2022-11-30T11:14:23.623Z,20.23
2022-11-30T11:17:00.602Z,19.60
2022-11-30T11:19:34.082Z,17.73
2022-11-30T11:22:05.339Z,16.20
2022-11-30T11:24:32.884Z,14.77
2022-11-30T11:27:01.177Z,16.13
2022-11-30T11:29:34.191Z,17.20
2022-11-30T11:32:20.164Z,15.97
2022-11-30T11:34:51.132Z,17.95
2022-11-30T11:37:17.787Z,15.67
2022-11-30T11:39:45.563Z,13.83
2022-11-30T11:42:22.172Z,15.37
2022-11-30T11:44:46.561Z,15.07
2022-11-30T11:47:26.196Z,15.83
2022-11-30T11:49:53.721Z,17.87
2022-11-30T11:52:21.246Z,14.87
2022-11-30T11:54:54.318Z,15.87
2022-11-30T11:57:21.848Z,14.57
2022-11-30T12:00:15.857Z,12.60
2022-11-30T12:02:39.197Z,16.83
2022-11-30T12:05:12.349Z,17.50
2022-11-30T12:07:42.456Z,15.17
2022-11-30T12:10:43.608Z,15.73
2022-11-30T12:12:48.427Z,14.40
2022-11-30T12:15:10.638Z,16.13
2022-11-30T12:17:43.854Z,15.40
2022-11-30T12:20:23.625Z,15.73
2022-11-30T12:22:59.836Z,15.00
2022-11-30T12:25:39.226Z,16.73
2022-11-30T12:28:07.531Z,15.43
2022-11-30T12:30:40.852Z,15.37
2022-11-30T12:33:27.134Z,15.73
2022-11-30T12:36:10.088Z,14.67
2022-11-30T12:38:52.585Z,17.87
2022-11-30T12:41:28.929Z,14.83
2022-11-30T12:44:02.447Z,14.77
2022-11-30T12:46:30.060Z,15.77
2022-11-30T12:49:12.709Z,17.20
2022-11-30T12:51:58.215Z,15.60
2022-11-30T12:54:47.623Z,17.07
2022-11-30T12:57:26.563Z,16.30
2022-11-30T13:00:12.461Z,16.07
2022-11-30T13:02:45.795Z,16.80
2022-11-30T13:05:15.958Z,18.77
2022-11-30T13:07:43.575Z,14.10
2022-11-30T13:10:19.312Z,18.27
2022-11-30T13:12:47.454Z,16.13
2022-11-30T13:15:20.354Z,15.17
2022-11-30T13:17:47.879Z,18.03
2022-11-30T13:20:24.749Z,18.43
2022-11-30T13:23:19.903Z,16.70
2022-11-30T13:26:08.293Z,16.70
2022-11-30T13:28:42.972Z,14.13
2022-11-30T13:31:40.756Z,15.00
2022-11-30T13:34:08.192Z,19.47
2022-11-30T13:36:41.900Z,17.33
2022-11-30T13:39:15.798Z,16.37
2022-11-30T13:41:43.611Z,19.83
2022-11-30T13:44:32.213Z,17.87
2022-11-30T13:47:02.375Z,15.03
2022-11-30T13:49:29.843Z,18.27
2022-11-30T13:52:21.588Z,20.53
2022-11-30T13:54:44.211Z,18.80
2022-11-30T13:57:17.591Z,17.00
2022-11-30T13:59:48.020Z,17.05
2022-11-30T14:02:33.983Z,18.57
2022-11-30T14:05:16.548Z,15.60
2022-11-30T14:07:53.179Z,14.37
2022-11-30T14:10:33.102Z,14.23
2022-11-30T14:13:03.347Z,15.53
2022-11-30T14:15:40.045Z,17.73
2022-11-30T14:18:10.385Z,15.90
2022-11-30T14:20:46.576Z,14.33
2022-11-30T14:23:14.445Z,13.60
2022-11-30T14:25:48.035Z,15.83
2022-11-30T14:28:18.488Z,11.90
2022-11-30T14:30:45.803Z,11.27
2022-11-30T14:33:19.512Z,10.23
2022-11-30T14:35:44.436Z,14.87
2022-11-30T14:38:14.660Z,13.23
2022-11-30T14:40:42.195Z,13.63
2022-11-30T14:43:09.778Z,11.37
2022-11-30T14:45:37.305Z,13.17
2022-11-30T14:48:08.521Z,10.50
2022-11-30T14:50:36.093Z,13.63
2022-11-30T14:53:12.490Z,18.10
2022-11-30T14:55:58.003Z,11.37
2022-11-30T14:58:40.879Z,13.93
2022-11-30T15:01:18.135Z,17.47
2022-11-30T15:03:45.637Z,13.30
2022-11-30T15:06:15.840Z,10.83
2022-11-30T15:08:46.724Z,14.03
2022-11-30T15:11:14.277Z,14.37
2022-11-30T15:13:41.811Z,12.80
2022-11-30T15:16:21.407Z,13.63
2022-11-30T15:18:48.894Z,15.80
2022-11-30T15:21:22.799Z,14.80
2022-11-30T15:23:51.718Z,16.60
2022-11-30T15:26:37.418Z,18.12
2022-11-30T15:29:10.441Z,18.97
2022-11-30T15:31:38.006Z,21.23
2022-11-30T15:34:05.530Z,21.77
2022-11-30T15:36:36.235Z,20.40
2022-11-30T15:39:03.771Z,20.33
2022-11-30T15:41:32.073Z,22.27
2022-11-30T15:43:59.649Z,26.50
2022-11-30T15:46:44.500Z,25.37
2022-11-30T15:49:24.108Z,23.30
2022-11-30T15:52:01.390Z,28.48
2022-11-30T15:54:50.794Z,30.83
2022-11-30T15:57:18.317Z,30.03
2022-11-30T16:00:04.945Z,31.10
2022-11-30T16:02:32.568Z,29.33
2022-11-30T16:05:10.880Z,30.90
2022-11-30T16:07:34.204Z,29.80
2022-11-30T16:10:07.745Z,32.65
2022-11-30T16:12:35.282Z,27.58
2022-11-30T16:15:02.877Z,30.67
2022-11-30T16:17:31.177Z,30.55
2022-11-30T16:19:58.769Z,30.53
2022-11-30T16:22:26.265Z,28.80
2022-11-30T16:24:54.571Z,26.10
2022-11-30T16:27:22.122Z,29.23
2022-11-30T16:29:52.557Z,25.57
2022-11-30T16:32:18.083Z,27.50
2022-11-30T16:34:45.544Z,29.15
2022-11-30T16:37:13.118Z,28.60
2022-11-30T16:39:40.662Z,26.23
2022-11-30T16:42:08.189Z,28.23
2022-11-30T16:44:36.539Z,27.07
2022-11-30T16:47:04.066Z,24.70
2022-11-30T16:49:31.592Z,26.67
2022-11-30T16:51:59.155Z,27.67
2022-11-30T16:54:26.689Z,27.13
2022-11-30T16:56:54.990Z,23.50
2022-11-30T16:59:22.831Z,23.30
2022-11-30T17:01:54.000Z,24.30
2022-11-30T17:04:24.292Z,24.73
2022-11-30T17:06:54.800Z,23.07
2022-11-30T17:09:19.509Z,23.47
2022-11-30T17:11:47.045Z,23.13
2022-11-30T17:14:14.618Z,24.43
2022-11-30T17:16:42.193Z,28.73
2022-11-30T17:19:09.666Z,24.63
2022-11-30T17:21:38.008Z,25.57
2022-11-30T17:24:05.582Z,23.80
2022-11-30T17:26:33.127Z,24.40
2022-11-30T17:29:01.057Z,23.03
2022-11-30T17:31:28.656Z,24.50
2022-11-30T17:33:56.873Z,22.87
2022-11-30T17:36:24.467Z,22.10
2022-11-30T17:38:52.002Z,25.10
2022-11-30T17:41:20.090Z,23.90
2022-11-30T17:43:48.155Z,26.60
2022-11-30T17:46:15.896Z,23.90
2022-11-30T17:48:43.215Z,23.50
2022-11-30T17:51:10.907Z,21.20
2022-11-30T17:53:39.093Z,26.23
2022-11-30T17:56:06.713Z,24.27
2022-11-30T17:58:37.871Z,25.93
2022-11-30T18:01:02.224Z,22.23
2022-11-30T18:03:29.683Z,23.03
2022-11-30T18:06:00.840Z,24.03
2022-11-30T18:08:28.377Z,26.62
2022-11-30T18:10:55.914Z,24.43
2022-11-30T18:13:23.493Z,22.97
2022-11-30T18:15:51.020Z,21.83
2022-11-30T18:18:18.550Z,23.53
2022-11-30T18:20:46.162Z,21.50
2022-11-30T18:23:13.696Z,23.47
2022-11-30T18:25:41.231Z,20.20
2022-11-30T18:28:09.569Z,20.77
2022-11-30T18:30:37.229Z,20.50
2022-11-30T18:33:04.736Z,24.12
2022-11-30T18:35:33.069Z,20.20
2022-11-30T18:38:00.603Z,20.90
2022-11-30T18:40:28.125Z,18.10
2022-11-30T18:42:56.872Z,18.80
2022-11-30T18:45:24.396Z,19.70
2022-11-30T18:47:51.927Z,17.67
2022-11-30T18:50:20.289Z,18.07
2022-11-30T18:52:47.803Z,18.67
2022-11-30T18:55:15.327Z,19.50
2022-11-30T18:57:43.669Z,18.87
2022-11-30T19:00:11.283Z,19.20
2022-11-30T19:02:38.896Z,22.13
2022-11-30T19:05:11.890Z,22.05
2022-11-30T19:07:33.977Z,20.67
2022-11-30T19:10:01.476Z,19.90
2022-11-30T19:12:29.705Z,18.70
2022-11-30T19:14:57.231Z,21.48
2022-11-30T19:17:25.534Z,21.73
2022-11-30T19:19:53.117Z,24.65
2022-11-30T19:22:20.642Z,25.00
2022-11-30T19:24:48.468Z,21.37
2022-11-30T19:27:16.697Z,22.70
2022-11-30T19:29:44.230Z,23.93
2022-11-30T19:32:11.765Z,23.07
2022-11-30T19:34:39.330Z,26.80
2022-11-30T19:37:06.854Z,26.63
2022-11-30T19:39:34.389Z,25.10
2022-11-30T19:42:01.982Z,23.17
2022-11-30T19:44:29.517Z,24.80
2022-11-30T19:46:57.053Z,28.52
2022-11-30T19:49:24.621Z,25.97
2022-11-30T19:51:52.164Z,25.20
2022-11-30T19:54:19.695Z,25.30
2022-11-30T19:56:48.226Z,27.93
2022-11-30T19:59:15.750Z,26.00
2022-11-30T20:01:44.141Z,27.63
2022-11-30T20:04:11.621Z,30.07
2022-11-30T20:06:39.152Z,29.13
2022-11-30T20:09:07.461Z,28.90
2022-11-30T20:11:35.414Z,27.27
2022-11-30T20:14:02.937Z,30.37
2022-11-30T20:16:31.259Z,30.30
2022-11-30T20:18:59.564Z,24.87
2022-11-30T20:21:27.108Z,30.20
2022-11-30T20:23:54.649Z,27.30
2022-11-30T20:26:22.205Z,26.40
2022-11-30T20:28:49.732Z,24.83
2022-11-30T20:31:18.065Z,27.57
2022-11-30T20:33:45.607Z,31.50
2022-11-30T20:36:13.144Z,28.73
2022-11-30T20:38:40.667Z,28.90
2022-11-30T20:41:10.862Z,27.57
2022-11-30T20:43:38.417Z,29.27
2022-11-30T20:46:11.918Z,26.93
2022-11-30T20:48:40.249Z,28.53
2022-11-30T20:51:30.229Z,28.07
2022-11-30T20:53:41.817Z,27.30
2022-11-30T20:56:10.199Z,27.73
2022-11-30T20:58:37.696Z,27.73
2022-11-30T21:01:17.253Z,25.60
2022-11-30T21:03:44.737Z,29.20
2022-11-30T21:06:12.261Z,26.40
2022-11-30T21:08:39.825Z,30.47
2022-11-30T21:11:07.391Z,27.37
2022-11-30T21:13:34.924Z,33.13
2022-11-30T21:16:02.624Z,28.77
2022-11-30T21:18:30.841Z,27.47
2022-11-30T21:21:01.220Z,25.47
2022-11-30T21:23:28.786Z,29.30
2022-11-30T21:25:56.359Z,33.03
2022-11-30T21:28:23.884Z,29.33
2022-11-30T21:30:51.531Z,29.87
2022-11-30T21:33:19.003Z,28.77
2022-11-30T21:35:46.555Z,27.47
2022-11-30T21:38:14.115Z,28.07
2022-11-30T21:40:41.647Z,26.43
2022-11-30T21:43:09.171Z,27.53
2022-11-30T21:45:36.755Z,29.17
2022-11-30T21:48:04.280Z,25.07
2022-11-30T21:50:31.835Z,28.17
2022-11-30T21:52:59.390Z,25.90
2022-11-30T21:55:26.915Z,25.43
2022-11-30T21:57:54.440Z,28.02
2022-11-30T22:00:22.783Z,31.40
2022-11-30T22:02:50.367Z,26.13
2022-11-30T22:05:17.854Z,26.40
2022-11-30T22:07:45.494Z,25.67
2022-11-30T22:10:12.959Z,29.27
2022-11-30T22:12:40.494Z,27.17
2022-11-30T22:15:08.964Z,25.57
2022-11-30T22:17:36.499Z,24.90
2022-11-30T22:20:04.044Z,24.80
2022-11-30T22:22:31.609Z,25.20
2022-11-30T22:24:59.137Z,26.67
2022-11-30T22:27:26.670Z,23.30
2022-11-30T22:29:55.029Z,24.43
2022-11-30T22:32:22.575Z,22.73
2022-11-30T22:34:50.108Z,26.30
2022-11-30T22:37:17.723Z,26.95
2022-11-30T22:39:45.408Z,25.90
2022-11-30T22:42:12.771Z,21.93
2022-11-30T22:44:41.469Z,24.20
2022-11-30T22:47:09.086Z,24.10
2022-11-30T22:49:37.305Z,26.57
2022-11-30T22:52:04.890Z,23.57
2022-11-30T22:54:32.442Z,25.20
2022-11-30T22:56:59.952Z,24.57
2022-11-30T22:59:28.292Z,24.80
2022-11-30T23:01:55.836Z,21.73
2022-11-30T23:04:23.429Z,26.73
2022-11-30T23:06:50.936Z,25.47
2022-11-30T23:09:18.470Z,23.70
2022-11-30T23:11:45.997Z,22.03
2022-11-30T23:14:13.590Z,26.00
2022-11-30T23:16:41.249Z,26.37
2022-11-30T23:19:08.651Z,24.90
2022-11-30T23:21:41.063Z,23.73
2022-11-30T23:24:03.826Z,23.57
2022-11-30T23:26:31.364Z,24.53
2022-11-30T23:28:58.935Z,23.10
2022-11-30T23:31:32.360Z,22.63
2022-11-30T23:33:54.823Z,21.37
2022-11-30T23:36:22.395Z,25.63
2022-11-30T23:38:49.921Z,22.57
2022-11-30T23:41:17.458Z,22.93
2022-11-30T23:43:45.798Z,21.43
2022-11-30T23:46:13.407Z,23.37
2022-11-30T23:48:40.889Z,23.85
2022-11-30T23:51:08.727Z,23.17
2022-11-30T23:53:36.261Z,23.47
2022-11-30T23:56:04.566Z,21.63
2022-11-30T23:58:32.138Z,23.83
